Time,TemperatureF,DewpointF,PressureIn,WindDirection,WindDirectionDegrees,WindSpeedMPH,WindSpeedGustMPH,Humidity,HourlyPrecipIn,Conditions,Clouds,dailyrainin,SoftwareType,DateUTC
2014-10-21 00:01:00,44.1,40.2,30.03,North,354,0.0,0.0,86,0.00,,,0.00,Wunderground v.1.15,2014-10-21 05:01:00,
2014-10-21 00:11:00,43.9,40.3,30.03,North,354,0.0,0.0,87,0.00,,,0.00,Wunderground v.1.15,2014-10-21 05:11:00,
2014-10-21 00:21:00,43.6,40.0,30.04,North,354,0.0,0.0,87,0.00,,,0.00,Wunderground v.1.15,2014-10-21 05:21:00,
2014-10-21 00:31:00,43.4,40.1,30.04,North,354,0.0,0.0,88,0.00,,,0.00,Wunderground v.1.15,2014-10-21 05:31:00,
2014-10-21 00:41:00,42.7,39.4,30.04,North,354,0.0,0.0,88,0.00,,,0.00,Wunderground v.1.15,2014-10-21 05:41:00,
2014-10-21 00:51:00,42.3,39.6,30.05,North,354,0.0,0.0,90,0.00,,,0.00,Wunderground v.1.15,2014-10-21 05:51:00,
2014-10-21 01:01:00,42.2,39.5,30.05,North,354,0.0,0.0,90,0.00,,,0.00,Wunderground v.1.15,2014-10-21 06:01:00,
2014-10-21 01:11:00,42.3,39.6,30.06,North,354,0.0,0.0,90,0.00,,,0.00,Wunderground v.1.15,2014-10-21 06:11:00,
2014-10-21 01:21:00,42.5,39.8,30.05,North,354,0.0,0.0,90,0.00,,,0.00,Wunderground v.1.15,2014-10-21 06:21:00,
2014-10-21 01:31:00,42.3,39.3,30.05,North,354,0.0,0.0,89,0.00,,,0.00,Wunderground v.1.15,2014-10-21 06:31:00,
2014-10-21 01:41:00,42.0,39.3,30.06,North,354,0.0,0.0,90,0.00,,,0.00,Wunderground v.1.15,2014-10-21 06:41:00,
2014-10-21 01:51:00,41.3,38.6,30.05,North,354,0.0,0.0,90,0.00,,,0.00,Wunderground v.1.15,2014-10-21 06:51:00,
2014-10-21 02:01:00,40.7,38.3,30.06,North,354,0.0,0.0,91,0.00,,,0.00,Wunderground v.1.15,2014-10-21 07:01:00,
2014-10-21 02:11:00,39.9,37.5,30.06,North,354,0.0,0.0,91,0.00,,,0.00,Wunderground v.1.15,2014-10-21 07:11:00,
2014-10-21 02:21:00,40.3,38.4,30.06,North,354,0.0,0.0,93,0.00,,,0.00,Wunderground v.1.15,2014-10-21 07:21:00,
2014-10-21 02:31:00,40.3,38.4,30.06,North,354,0.0,0.0,93,0.00,,,0.00,Wunderground v.1.15,2014-10-21 07:31:00,
2014-10-21 02:41:00,40.5,38.6,30.06,North,354,0.0,0.0,93,0.00,,,0.00,Wunderground v.1.15,2014-10-21 07:41:00,
2014-10-21 02:51:00,40.5,38.4,30.07,North,354,0.0,0.0,92,0.00,,,0.00,Wunderground v.1.15,2014-10-21 07:51:00,
2014-10-21 03:01:00,40.7,38.6,30.07,North,354,0.0,0.0,92,0.00,,,0.00,Wunderground v.1.15,2014-10-21 08:01:00,
2014-10-21 03:11:00,40.4,38.0,30.07,North,354,0.0,0.0,91,0.00,,,0.00,Wunderground v.1.15,2014-10-21 08:11:00,
2014-10-21 03:21:00,40.0,37.6,30.07,North,354,0.0,0.0,91,0.00,,,0.00,Wunderground v.1.15,2014-10-21 08:21:00,
2014-10-21 03:31:00,40.1,37.7,30.07,NNE,33,0.0,0.0,91,0.00,,,0.00,Wunderground v.1.15,2014-10-21 08:31:00,
2014-10-21 03:41:00,39.9,37.8,30.07,NE,34,0.0,0.0,92,0.00,,,0.00,Wunderground v.1.15,2014-10-21 08:41:00,
2014-10-21 03:51:00,39.7,37.6,30.07,NNE,33,0.0,0.0,92,0.00,,,0.00,Wunderground v.1.15,2014-10-21 08:51:00,
2014-10-21 04:01:00,39.8,37.7,30.08,NNE,33,0.0,0.0,92,0.00,,,0.00,Wunderground v.1.15,2014-10-21 09:01:00,
2014-10-21 04:11:00,39.4,37.3,30.07,NNE,33,0.0,0.0,92,0.00,,,0.00,Wunderground v.1.15,2014-10-21 09:11:00,
2014-10-21 04:21:00,39.1,37.0,30.08,NNE,33,0.0,0.0,92,0.00,,,0.00,Wunderground v.1.15,2014-10-21 09:21:00,
2014-10-21 04:31:00,38.7,36.6,30.08,NNE,33,0.0,0.0,92,0.00,,,0.00,Wunderground v.1.15,2014-10-21 09:31:00,
2014-10-21 04:41:00,38.5,36.7,30.08,NNE,33,0.0,0.0,93,0.00,,,0.00,Wunderground v.1.15,2014-10-21 09:41:00,
2014-10-21 04:51:00,38.2,36.4,30.09,NNE,33,0.0,0.0,93,0.00,,,0.00,Wunderground v.1.15,2014-10-21 09:51:00,
2014-10-21 05:01:00,38.2,36.4,30.09,NNE,33,0.0,0.0,93,0.00,,,0.00,Wunderground v.1.15,2014-10-21 10:01:00,
2014-10-21 05:11:00,37.7,36.1,30.09,NNE,33,0.0,0.0,94,0.00,,,0.00,Wunderground v.1.15,2014-10-21 10:11:00,
2014-10-21 05:21:00,37.9,36.3,30.09,NNE,33,0.0,0.0,94,0.00,,,0.00,Wunderground v.1.15,2014-10-21 10:21:00,
2014-10-21 05:31:00,37.9,36.3,30.09,NNE,33,0.0,0.0,94,0.00,,,0.00,Wunderground v.1.15,2014-10-21 10:31:00,
2014-10-21 05:41:00,37.7,36.1,30.10,NNE,33,0.0,0.0,94,0.00,,,0.00,Wunderground v.1.15,2014-10-21 10:41:00,
2014-10-21 05:51:00,37.6,36.0,30.10,NNE,33,0.0,0.0,94,0.00,,,0.00,Wunderground v.1.15,2014-10-21 10:51:00,
2014-10-21 06:01:00,37.6,36.3,30.10,NNE,33,0.0,0.0,95,0.00,,,0.00,Wunderground v.1.15,2014-10-21 11:01:00,
2014-10-21 06:11:00,37.4,35.8,30.10,NNE,33,0.0,0.0,94,0.00,,,0.00,Wunderground v.1.15,2014-10-21 11:11:00,
2014-10-21 06:21:00,37.4,36.1,30.10,NNE,33,0.0,0.0,95,0.00,,,0.00,Wunderground v.1.15,2014-10-21 11:21:00,
2014-10-21 06:31:00,37.5,36.2,30.10,NNE,33,0.0,0.0,95,0.00,,,0.00,Wunderground v.1.15,2014-10-21 11:31:00,
2014-10-21 06:41:00,37.3,36.0,30.11,NNE,33,0.0,0.0,95,0.00,,,0.00,Wunderground v.1.15,2014-10-21 11:41:00,
2014-10-21 06:51:00,37.6,36.3,30.11,NNE,33,0.0,0.0,95,0.00,,,0.00,Wunderground v.1.15,2014-10-21 11:51:00,
2014-10-21 07:01:00,37.7,36.7,30.11,NNE,33,0.0,0.0,96,0.00,,,0.00,Wunderground v.1.15,2014-10-21 12:01:00,
2014-10-21 07:11:00,37.7,36.4,30.11,NNE,33,0.0,0.0,95,0.00,,,0.00,Wunderground v.1.15,2014-10-21 12:11:00,
2014-10-21 07:21:00,37.6,36.3,30.11,NNE,33,0.0,0.0,95,0.00,,,0.00,Wunderground v.1.15,2014-10-21 12:21:00,
2014-10-21 07:31:00,37.7,36.7,30.11,NNE,33,0.0,0.0,96,0.00,,,0.00,Wunderground v.1.15,2014-10-21 12:31:00,
2014-10-21 07:41:00,37.5,36.2,30.12,NNE,33,0.0,0.0,95,0.00,,,0.00,Wunderground v.1.15,2014-10-21 12:41:00,
2014-10-21 07:51:00,37.4,36.4,30.12,NNE,33,0.0,0.0,96,0.00,,,0.00,Wunderground v.1.15,2014-10-21 12:51:00,
2014-10-21 08:01:00,37.5,36.5,30.12,NNE,33,0.0,0.0,96,0.00,,,0.00,Wunderground v.1.15,2014-10-21 13:01:00,
2014-10-21 08:11:00,37.9,36.9,30.12,NNE,33,0.0,0.0,96,0.00,,,0.00,Wunderground v.1.15,2014-10-21 13:11:00,
2014-10-21 08:21:00,38.7,37.7,30.13,East,86,0.0,1.0,96,0.00,,,0.00,Wunderground v.1.15,2014-10-21 13:21:00,
2014-10-21 08:31:00,39.5,38.5,30.13,East,95,0.0,0.0,96,0.00,,,0.00,Wunderground v.1.15,2014-10-21 13:31:00,
2014-10-21 08:41:00,40.1,38.5,30.13,East,89,0.0,1.0,94,0.00,,,0.00,Wunderground v.1.15,2014-10-21 13:41:00,
2014-10-21 08:51:00,40.9,39.3,30.13,ENE,74,0.0,0.0,94,0.00,,,0.00,Wunderground v.1.15,2014-10-21 13:51:00,
2014-10-21 09:01:00,41.7,39.8,30.13,ESE,109,0.0,0.0,93,0.00,,,0.00,Wunderground v.1.15,2014-10-21 14:01:00,
2014-10-21 09:11:00,43.0,40.8,30.14,East,86,0.0,0.0,92,0.00,,,0.00,Wunderground v.1.15,2014-10-21 14:11:00,
2014-10-21 09:21:00,44.1,41.4,30.14,East,98,0.0,1.0,90,0.00,,,0.00,Wunderground v.1.15,2014-10-21 14:21:00,
2014-10-21 09:31:00,45.6,42.8,30.14,ESE,113,0.0,0.0,90,0.00,,,0.00,Wunderground v.1.15,2014-10-21 14:31:00,
2014-10-21 09:41:00,46.8,43.4,30.14,East,82,1.0,1.0,88,0.00,,,0.00,Wunderground v.1.15,2014-10-21 14:41:00,
2014-10-21 09:51:00,48.0,44.3,30.14,East,84,1.0,1.0,87,0.00,,,0.00,Wunderground v.1.15,2014-10-21 14:51:00,
2014-10-21 10:01:00,49.3,45.3,30.14,SW,217,1.0,1.0,86,0.00,,,0.00,Wunderground v.1.15,2014-10-21 15:01:00,
2014-10-21 10:11:00,50.8,46.1,30.14,ENE,72,1.0,1.0,84,0.00,,,0.00,Wunderground v.1.15,2014-10-21 15:11:00,
2014-10-21 10:21:00,52.0,46.7,30.14,East,82,0.0,1.0,82,0.00,,,0.00,Wunderground v.1.15,2014-10-21 15:21:00,
2014-10-21 10:31:00,53.2,47.2,30.14,SW,221,1.0,3.0,80,0.00,,,0.00,Wunderground v.1.15,2014-10-21 15:31:00,
2014-10-21 10:41:00,54.2,47.5,30.14,ESE,107,1.0,1.0,78,0.00,,,0.00,Wunderground v.1.15,2014-10-21 15:41:00,
2014-10-21 10:51:00,55.0,47.9,30.14,East,101,1.0,1.0,77,0.00,,,0.00,Wunderground v.1.15,2014-10-21 15:51:00,
2014-10-21 11:01:00,56.0,48.2,30.13,East,99,1.0,1.0,75,0.00,,,0.00,Wunderground v.1.15,2014-10-21 16:01:00,
2014-10-21 11:11:00,56.9,48.3,30.13,ESE,104,1.0,1.0,73,0.00,,,0.00,Wunderground v.1.15,2014-10-21 16:11:00,
2014-10-21 11:21:00,57.2,47.9,30.13,South,174,2.0,2.0,71,0.00,,,0.00,Wunderground v.1.15,2014-10-21 16:21:00,